ARG2432 LIRN-LIBR
Flight info
| Callsign | ARG2432 |
|---|---|
| Flight time | 0h 31m |
| Altitude | 24000 |
| Route | GALTI DCT LUNAR DCT LUXIL L995 ROBOT |
| Aircraft | B737/M-SDE2E3FGHIRWXY/LB1 |
Departure
| Time | 2026-04-21 15:04 |
|---|---|
| Airport | Naples International Airport (LIRN) |
Arrival
| Time | 2026-04-21 15:35 |
|---|---|
| Airport | Brindisi Airport (LIBR) |
| Time | Latitude | Longitude | Altitude | Speed | Heading |
|---|---|---|---|---|---|
| 2026-04-21 14:51 | 40.87884 | 14.28227 | 291 ft | 0 kts | 186° |
| 2026-04-21 14:59 | 40.87901 | 14.28229 | 294 ft | 4 kts | 182° |
| 2026-04-21 14:59 | 40.87928 | 14.28228 | 295 ft | 4 kts | 170° |
| 2026-04-21 14:59 | 40.87952 | 14.28217 | 290 ft | 4 kts | 133° |
| 2026-04-21 14:59 | 40.87959 | 14.28200 | 290 ft | 1 kts | 97° |
| 2026-04-21 15:00 | 40.87959 | 14.28197 | 290 ft | 0 kts | 97° |
| 2026-04-21 15:01 | 40.87966 | 14.28232 | 292 ft | 12 kts | 71° |
| 2026-04-21 15:01 | 40.87980 | 14.28408 | 287 ft | 24 kts | 86° |
| 2026-04-21 15:02 | 40.88060 | 14.28625 | 285 ft | 29 kts | 53° |
| 2026-04-21 15:02 | 40.88195 | 14.28862 | 279 ft | 35 kts | 53° |
| 2026-04-21 15:02 | 40.88350 | 14.29137 | 273 ft | 40 kts | 53° |
| 2026-04-21 15:02 | 40.88514 | 14.29418 | 262 ft | 38 kts | 52° |
| 2026-04-21 15:03 | 40.88678 | 14.29699 | 254 ft | 39 kts | 52° |
| 2026-04-21 15:03 | 40.88840 | 14.29980 | 245 ft | 38 kts | 52° |
| 2026-04-21 15:03 | 40.88979 | 14.30221 | 240 ft | 20 kts | 50° |
| 2026-04-21 15:03 | 40.89094 | 14.30201 | 238 ft | 19 kts | 300° |
| 2026-04-21 15:04 | 40.89021 | 14.29969 | 241 ft | 53 kts | 238° |
| 2026-04-21 15:04 | 40.88696 | 14.29277 | 261 ft | 122 kts | 238° |
| 2026-04-21 15:04 | 40.88143 | 14.28126 | 376 ft | 167 kts | 237° |
| 2026-04-21 15:04 | 40.87509 | 14.26833 | 1203 ft | 165 kts | 235° |
| 2026-04-21 15:05 | 40.86731 | 14.25727 | 2008 ft | 168 kts | 206° |
| 2026-04-21 15:05 | 40.84180 | 14.26082 | 3027 ft | 210 kts | 166° |
| 2026-04-21 15:05 | 40.82759 | 14.26514 | 3892 ft | 208 kts | 168° |
| 2026-04-21 15:06 | 40.81329 | 14.26885 | 4693 ft | 209 kts | 169° |
| 2026-04-21 15:06 | 40.79890 | 14.27203 | 5514 ft | 211 kts | 172° |
| 2026-04-21 15:06 | 40.78455 | 14.27475 | 6315 ft | 212 kts | 174° |
| 2026-04-21 15:06 | 40.76974 | 14.27724 | 7096 ft | 217 kts | 175° |
| 2026-04-21 15:07 | 40.75444 | 14.27961 | 7812 ft | 225 kts | 176° |
| 2026-04-21 15:07 | 40.73866 | 14.28195 | 8569 ft | 231 kts | 176° |
| 2026-04-21 15:07 | 40.72260 | 14.28430 | 9441 ft | 233 kts | 176° |
| 2026-04-21 15:07 | 40.70638 | 14.28704 | 10235 ft | 239 kts | 172° |
| 2026-04-21 15:08 | 40.68958 | 14.29296 | 10653 ft | 264 kts | 167° |
| 2026-04-21 15:08 | 40.67096 | 14.30053 | 10894 ft | 295 kts | 166° |
| 2026-04-21 15:08 | 40.65035 | 14.30877 | 11134 ft | 324 kts | 167° |
| 2026-04-21 15:08 | 40.62789 | 14.31789 | 11406 ft | 350 kts | 161° |
| 2026-04-21 15:09 | 40.60696 | 14.33539 | 12058 ft | 366 kts | 137° |
| 2026-04-21 15:09 | 40.59234 | 14.36309 | 12869 ft | 376 kts | 112° |
| 2026-04-21 15:09 | 40.58790 | 14.39681 | 13792 ft | 377 kts | 85° |
| 2026-04-21 15:09 | 40.59094 | 14.43105 | 14687 ft | 379 kts | 80° |
| 2026-04-21 15:10 | 40.59484 | 14.46557 | 15482 ft | 385 kts | 79° |
| 2026-04-21 15:10 | 40.59894 | 14.50081 | 16252 ft | 391 kts | 79° |
| 2026-04-21 15:10 | 40.60297 | 14.53636 | 17060 ft | 396 kts | 79° |
| 2026-04-21 15:10 | 40.60690 | 14.57250 | 17825 ft | 401 kts | 79° |
| 2026-04-21 15:11 | 40.61075 | 14.60906 | 18579 ft | 406 kts | 79° |
| 2026-04-21 15:11 | 40.61456 | 14.64601 | 19339 ft | 410 kts | 79° |
| 2026-04-21 15:11 | 40.61837 | 14.68346 | 20054 ft | 415 kts | 79° |
| 2026-04-21 15:11 | 40.62215 | 14.72082 | 20738 ft | 420 kts | 79° |
| 2026-04-21 15:12 | 40.62606 | 14.75962 | 21423 ft | 424 kts | 79° |
| 2026-04-21 15:12 | 40.62990 | 14.79789 | 22066 ft | 429 kts | 79° |
| 2026-04-21 15:12 | 40.63382 | 14.83696 | 22709 ft | 433 kts | 79° |
| 2026-04-21 15:12 | 40.63778 | 14.87652 | 23297 ft | 438 kts | 79° |
| 2026-04-21 15:13 | 40.64177 | 14.91644 | 23848 ft | 443 kts | 79° |
| 2026-04-21 15:13 | 40.64582 | 14.95681 | 23913 ft | 445 kts | 79° |
| 2026-04-21 15:13 | 40.64984 | 14.99711 | 23939 ft | 444 kts | 79° |
| 2026-04-21 15:13 | 40.65390 | 15.03782 | 23954 ft | 444 kts | 79° |
| 2026-04-21 15:14 | 40.65789 | 15.07799 | 23948 ft | 445 kts | 79° |
| 2026-04-21 15:14 | 40.66187 | 15.11823 | 23943 ft | 444 kts | 79° |
| 2026-04-21 15:14 | 40.66583 | 15.15828 | 23933 ft | 444 kts | 79° |
| 2026-04-21 15:14 | 40.66980 | 15.19875 | 23940 ft | 443 kts | 79° |
| 2026-04-21 15:15 | 40.67378 | 15.23939 | 23955 ft | 444 kts | 79° |
| 2026-04-21 15:15 | 40.67772 | 15.27973 | 23948 ft | 444 kts | 79° |
| 2026-04-21 15:15 | 40.68161 | 15.31974 | 23949 ft | 445 kts | 79° |
| 2026-04-21 15:15 | 40.68552 | 15.36008 | 23945 ft | 445 kts | 79° |
| 2026-04-21 15:16 | 40.68943 | 15.40060 | 23948 ft | 446 kts | 79° |
| 2026-04-21 15:16 | 40.69330 | 15.44095 | 23957 ft | 446 kts | 79° |
| 2026-04-21 15:16 | 40.69711 | 15.48127 | 23959 ft | 446 kts | 79° |
| 2026-04-21 15:16 | 40.70093 | 15.52214 | 23955 ft | 446 kts | 79° |
| 2026-04-21 15:17 | 40.70471 | 15.56277 | 23961 ft | 446 kts | 79° |
| 2026-04-21 15:17 | 40.70849 | 15.60350 | 23966 ft | 446 kts | 79° |
| 2026-04-21 15:17 | 40.71222 | 15.64383 | 23949 ft | 446 kts | 80° |
| 2026-04-21 15:17 | 40.71598 | 15.68461 | 23957 ft | 446 kts | 79° |
| 2026-04-21 15:18 | 40.71972 | 15.72532 | 23950 ft | 446 kts | 80° |
| 2026-04-21 15:18 | 40.72341 | 15.76571 | 23952 ft | 446 kts | 80° |
| 2026-04-21 15:18 | 40.72708 | 15.80594 | 23950 ft | 446 kts | 80° |
| 2026-04-21 15:18 | 40.73075 | 15.84641 | 23955 ft | 446 kts | 80° |
| 2026-04-21 15:19 | 40.73445 | 15.88724 | 23953 ft | 446 kts | 80° |
| 2026-04-21 15:19 | 40.73812 | 15.92799 | 23955 ft | 446 kts | 80° |
| 2026-04-21 15:19 | 40.74176 | 15.96857 | 23954 ft | 446 kts | 80° |
| 2026-04-21 15:19 | 40.74536 | 16.00877 | 23949 ft | 446 kts | 80° |
| 2026-04-21 15:20 | 40.74898 | 16.04943 | 23928 ft | 446 kts | 80° |
| 2026-04-21 15:20 | 40.75261 | 16.09038 | 23924 ft | 446 kts | 80° |
| 2026-04-21 15:20 | 40.75619 | 16.13088 | 23918 ft | 446 kts | 80° |
| 2026-04-21 15:20 | 40.75978 | 16.17172 | 23916 ft | 446 kts | 80° |
| 2026-04-21 15:21 | 40.76330 | 16.21185 | 23923 ft | 447 kts | 80° |
| 2026-04-21 15:21 | 40.76688 | 16.25280 | 23918 ft | 448 kts | 80° |
| 2026-04-21 15:21 | 40.77043 | 16.29373 | 23909 ft | 448 kts | 80° |
| 2026-04-21 15:21 | 40.77277 | 16.32079 | 23913 ft | 447 kts | 80° |
| 2026-04-21 15:22 | 40.77745 | 16.37508 | 23918 ft | 448 kts | 80° |
| 2026-04-21 15:22 | 40.77978 | 16.40229 | 23913 ft | 448 kts | 80° |
| 2026-04-21 15:22 | 40.78329 | 16.44326 | 23915 ft | 448 kts | 80° |
| 2026-04-21 15:22 | 40.78789 | 16.49728 | 23920 ft | 448 kts | 80° |
| 2026-04-21 15:23 | 40.79021 | 16.52468 | 23916 ft | 448 kts | 80° |
| 2026-04-21 15:23 | 40.79365 | 16.56538 | 23918 ft | 448 kts | 80° |
| 2026-04-21 15:23 | 40.79706 | 16.60603 | 23914 ft | 447 kts | 81° |
| 2026-04-21 15:23 | 40.80049 | 16.64702 | 23913 ft | 446 kts | 81° |
| 2026-04-21 15:24 | 40.80390 | 16.68775 | 23916 ft | 446 kts | 81° |
| 2026-04-21 15:24 | 40.80724 | 16.72804 | 23921 ft | 445 kts | 81° |
| 2026-04-21 15:24 | 40.81065 | 16.76916 | 23917 ft | 445 kts | 81° |
| 2026-04-21 15:24 | 40.81400 | 16.80978 | 23912 ft | 445 kts | 81° |
| 2026-04-21 15:25 | 40.81675 | 16.85026 | 23910 ft | 446 kts | 85° |
| 2026-04-21 15:25 | 40.81551 | 16.89088 | 23905 ft | 442 kts | 95° |
| 2026-04-21 15:25 | 40.80964 | 16.93000 | 23914 ft | 430 kts | 102° |
| 2026-04-21 15:25 | 40.80261 | 16.96778 | 23895 ft | 416 kts | 103° |
| 2026-04-21 15:26 | 40.79565 | 17.00415 | 23728 ft | 404 kts | 103° |
| 2026-04-21 15:26 | 40.78881 | 17.04014 | 22773 ft | 407 kts | 103° |
| 2026-04-21 15:26 | 40.78197 | 17.07674 | 21587 ft | 415 kts | 103° |
| 2026-04-21 15:26 | 40.77512 | 17.11389 | 20581 ft | 416 kts | 103° |
| 2026-04-21 15:27 | 40.76835 | 17.15088 | 19763 ft | 412 kts | 103° |
| 2026-04-21 15:27 | 40.76175 | 17.18705 | 19166 ft | 400 kts | 103° |
| 2026-04-21 15:27 | 40.75530 | 17.22234 | 18605 ft | 390 kts | 103° |
| 2026-04-21 15:27 | 40.74902 | 17.25666 | 18054 ft | 380 kts | 103° |
| 2026-04-21 15:28 | 40.74289 | 17.29019 | 17534 ft | 374 kts | 103° |
| 2026-04-21 15:28 | 40.73682 | 17.32335 | 17017 ft | 371 kts | 103° |
| 2026-04-21 15:28 | 40.73082 | 17.35608 | 16516 ft | 374 kts | 103° |
| 2026-04-21 15:28 | 40.72451 | 17.39037 | 15975 ft | 386 kts | 103° |
| 2026-04-21 15:29 | 40.71815 | 17.42490 | 15404 ft | 387 kts | 103° |
| 2026-04-21 15:29 | 40.71181 | 17.45925 | 14837 ft | 384 kts | 103° |
| 2026-04-21 15:29 | 40.70639 | 17.49359 | 14132 ft | 385 kts | 98° |
| 2026-04-21 15:29 | 40.70277 | 17.52808 | 13497 ft | 383 kts | 96° |
| 2026-04-21 15:30 | 40.69962 | 17.56281 | 12903 ft | 380 kts | 96° |
| 2026-04-21 15:30 | 40.69635 | 17.59725 | 12331 ft | 377 kts | 97° |
| 2026-04-21 15:30 | 40.69287 | 17.63128 | 11759 ft | 373 kts | 98° |
| 2026-04-21 15:30 | 40.68390 | 17.71546 | 10355 ft | 363 kts | 98° |
| 2026-04-21 15:31 | 40.67094 | 17.83719 | 9466 ft | 316 kts | 98° |
| 2026-04-21 15:31 | 40.65843 | 17.94544 | 8317 ft | 292 kts | 110° |
| 2026-04-21 15:31 | 40.60916 | 18.00975 | 7671 ft | 223 kts | 141° |
| 2026-04-21 15:31 | 40.56545 | 18.05754 | 6520 ft | 194 kts | 168° |
| 2026-04-21 15:32 | 40.55000 | 18.05323 | 5950 ft | 183 kts | 227° |
| 2026-04-21 15:32 | 40.54552 | 18.03851 | 5521 ft | 181 kts | 271° |
| 2026-04-21 15:32 | 40.55124 | 18.02332 | 4778 ft | 199 kts | 319° |
| 2026-04-21 15:32 | 40.56453 | 18.01763 | 4039 ft | 210 kts | 4° |
| 2026-04-21 15:33 | 40.57798 | 18.02294 | 3467 ft | 193 kts | 15° |
| 2026-04-21 15:33 | 40.59090 | 18.02151 | 2875 ft | 185 kts | 342° |
| 2026-04-21 15:33 | 40.60226 | 18.01463 | 2233 ft | 180 kts | 324° |
| 2026-04-21 15:33 | 40.61174 | 18.00366 | 1567 ft | 179 kts | 315° |
| 2026-04-21 15:34 | 40.62032 | 17.99223 | 1033 ft | 171 kts | 315° |
| 2026-04-21 15:34 | 40.62885 | 17.98202 | 659 ft | 161 kts | 319° |
| 2026-04-21 15:34 | 40.63664 | 17.97317 | 481 ft | 138 kts | 319° |
| 2026-04-21 15:34 | 40.64373 | 17.96456 | 269 ft | 136 kts | 316° |
| 2026-04-21 15:35 | 40.65055 | 17.95619 | 116 ft | 134 kts | 319° |
| 2026-04-21 15:35 | 40.65721 | 17.94820 | 38 ft | 127 kts | 318° |
| 2026-04-21 15:35 | 40.66258 | 17.94181 | 35 ft | 74 kts | 317° |
| 2026-04-21 15:35 | 40.66534 | 17.93847 | 35 ft | 48 kts | 317° |
| 2026-04-21 15:36 | 40.66736 | 17.93644 | 34 ft | 18 kts | 360° |
| 2026-04-21 15:36 | 40.66817 | 17.93751 | 35 ft | 18 kts | 86° |
| 2026-04-21 15:36 | 40.66745 | 17.93878 | 35 ft | 21 kts | 138° |
| 2026-04-21 15:36 | 40.66629 | 17.94018 | 35 ft | 23 kts | 136° |
| 2026-04-21 15:37 | 40.66515 | 17.94158 | 35 ft | 22 kts | 137° |
| 2026-04-21 15:37 | 40.66405 | 17.94295 | 34 ft | 21 kts | 137° |
| 2026-04-21 15:37 | 40.66297 | 17.94426 | 33 ft | 21 kts | 137° |
| 2026-04-21 15:37 | 40.66192 | 17.94555 | 33 ft | 20 kts | 137° |
| 2026-04-21 15:38 | 40.66079 | 17.94678 | 32 ft | 23 kts | 160° |
| 2026-04-21 15:38 | 40.65946 | 17.94566 | 32 ft | 27 kts | 233° |
| 2026-04-21 15:38 | 40.65826 | 17.94361 | 34 ft | 29 kts | 232° |
| 2026-04-21 15:38 | 40.65788 | 17.94218 | 36 ft | 15 kts | 305° |
| 2026-04-21 15:39 | 40.65842 | 17.94188 | 36 ft | 2 kts | 344° |
| 2026-04-21 15:39 | 40.65850 | 17.94185 | 35 ft | 0 kts | 345° |